Ontario International Airport
KONT : now visible

Airfield :











YOU CAN JOIN US ON...

 
LOGIN :

Register | Disclaimer

   EN    FR    IT 

 









Legend :    VFR   Marginal VFR   IFR   Intensive IFR   Very Intensive IFR
Visi :
Ceiling :
>= 8 km
>= 3000ft
5 to 8 km
1000 to 3000 ft
1500m to 5 km
500 to 1000 ft
800 to 1500m
200 to 500 ft
< 800m
< 200 ft
Symbols :   Thunderstorms  Fog  Heavy snow  Heavy precipitations  Wind > 20 kt






- Airport Elevation : 944 ft
- IATA code : ONT


KONT - Ontario International

CURRENT METAR :
  • 192253Z 27017KT 10SM FEW050 BKN120 BKN250 24/02 A2965 RMK AO2 SLP028 ACSL N-NE T02390017

EXPIRED METARs :
  • 192153Z 27016KT 10SM SCT110 BKN130 BKN250 26/01 A2967 RMK AO2 SLP033 T02610011
  • 192053Z 26013G21KT 10SM BKN110 BKN250 27/M01 A2968 RMK AO2 SLP036 T02721006 56030

TAF KONT
Valid from the 19 at 18:00 until the 21 at 00:00 UTC


191748Z 1918/2024 VRB04KT P6SM SCT100 BKN250
FM192100 25012KT P6SM SCT025 BKN100
FM200300 23007KT P6SM VCSH SCT015 BKN025
FM200600 25008KT P6SM -SHRA BKN015 BKN025
FM201100 24006KT P6SM -SHRA SCT010 BKN018
FM201600 23009KT 4SM RA BR BKN012 OVC025
FM202100 24006KT 6SM -SHRA BR SCT015 BKN030



MET'MAP, your aeronautical weather chart ! - Copyright ORBIFLY December 2007 - Disclaimer

ORBIFLY MET'MAP TEAM :

Programming & Development : Alexandra Zaïnal
Concept & Development : Baudouin d'Aumeries
Co-Development & Prog : Marc-Olivier Méhu
Technical & hardware support : Manuel Goepfert

Contact : metmap@orbifly.com




SOURCES & CREDITS :

   NOAA       Earth
Advisory